sensor_id;sensor_type;location;lat;lon;timestamp;temperature;humidity
23475;DHT22;11910;52.086;21.066;2022-08-21T00:02:03;21.20;97.00
23475;DHT22;11910;52.086;21.066;2022-08-21T00:04:30;21.20;96.10
23475;DHT22;11910;52.086;21.066;2022-08-21T00:06:56;21.10;95.50
23475;DHT22;11910;52.086;21.066;2022-08-21T00:09:22;21.00;95.60
23475;DHT22;11910;52.086;21.066;2022-08-21T00:11:48;21.00;95.80
23475;DHT22;11910;52.086;21.066;2022-08-21T00:14:14;20.90;95.30
23475;DHT22;11910;52.086;21.066;2022-08-21T00:16:40;20.90;95.40
23475;DHT22;11910;52.086;21.066;2022-08-21T00:19:07;20.90;95.60
23475;DHT22;11910;52.086;21.066;2022-08-21T00:21:34;20.80;95.50
23475;DHT22;11910;52.086;21.066;2022-08-21T00:24:01;20.60;95.80
23475;DHT22;11910;52.086;21.066;2022-08-21T00:26:27;20.50;96.20
23475;DHT22;11910;52.086;21.066;2022-08-21T00:28:53;20.50;96.30
23475;DHT22;11910;52.086;21.066;2022-08-21T00:31:18;20.50;96.50
23475;DHT22;11910;52.086;21.066;2022-08-21T00:33:45;20.50;97.00
23475;DHT22;11910;52.086;21.066;2022-08-21T00:36:12;20.50;96.90
23475;DHT22;11910;52.086;21.066;2022-08-21T00:38:38;20.60;97.40
23475;DHT22;11910;52.086;21.066;2022-08-21T00:41:05;20.50;97.20
23475;DHT22;11910;52.086;21.066;2022-08-21T00:43:33;20.60;97.70
23475;DHT22;11910;52.086;21.066;2022-08-21T00:46:01;20.70;97.90
23475;DHT22;11910;52.086;21.066;2022-08-21T00:48:27;20.70;98.10
23475;DHT22;11910;52.086;21.066;2022-08-21T00:50:58;20.80;97.70
23475;DHT22;11910;52.086;21.066;2022-08-21T00:53:25;20.80;97.10
23475;DHT22;11910;52.086;21.066;2022-08-21T00:55:52;20.70;96.70
23475;DHT22;11910;52.086;21.066;2022-08-21T00:58:18;20.70;96.70
23475;DHT22;11910;52.086;21.066;2022-08-21T01:00:46;20.70;96.70
23475;DHT22;11910;52.086;21.066;2022-08-21T01:03:17;20.60;95.40
23475;DHT22;11910;52.086;21.066;2022-08-21T01:05:43;20.50;95.60
23475;DHT22;11910;52.086;21.066;2022-08-21T01:08:10;20.40;95.00
23475;DHT22;11910;52.086;21.066;2022-08-21T01:10:37;20.30;94.90
23475;DHT22;11910;52.086;21.066;2022-08-21T01:13:05;20.20;95.30
23475;DHT22;11910;52.086;21.066;2022-08-21T01:15:34;20.20;95.40
23475;DHT22;11910;52.086;21.066;2022-08-21T01:18:02;20.10;95.80
23475;DHT22;11910;52.086;21.066;2022-08-21T01:20:28;20.10;96.10
23475;DHT22;11910;52.086;21.066;2022-08-21T01:22:53;20.00;95.80
23475;DHT22;11910;52.086;21.066;2022-08-21T01:25:19;20.00;95.60
23475;DHT22;11910;52.086;21.066;2022-08-21T01:27:45;19.90;95.50
23475;DHT22;11910;52.086;21.066;2022-08-21T01:30:18;19.90;95.70
23475;DHT22;11910;52.086;21.066;2022-08-21T01:32:45;19.90;96.60
23475;DHT22;11910;52.086;21.066;2022-08-21T01:35:12;19.90;96.50
23475;DHT22;11910;52.086;21.066;2022-08-21T01:37:38;19.90;96.90
23475;DHT22;11910;52.086;21.066;2022-08-21T01:40:05;19.90;96.90
23475;DHT22;11910;52.086;21.066;2022-08-21T01:42:31;20.00;97.10
23475;DHT22;11910;52.086;21.066;2022-08-21T01:44:57;20.00;95.70
23475;DHT22;11910;52.086;21.066;2022-08-21T01:47:23;20.00;95.80
23475;DHT22;11910;52.086;21.066;2022-08-21T01:49:49;19.90;95.20
23475;DHT22;11910;52.086;21.066;2022-08-21T01:52:15;19.80;95.50
23475;DHT22;11910;52.086;21.066;2022-08-21T01:54:41;19.70;96.40
23475;DHT22;11910;52.086;21.066;2022-08-21T01:57:07;19.70;96.30
23475;DHT22;11910;52.086;21.066;2022-08-21T01:59:33;19.70;96.30
23475;DHT22;11910;52.086;21.066;2022-08-21T02:01:59;19.70;96.60
23475;DHT22;11910;52.086;21.066;2022-08-21T02:04:24;19.60;95.40
23475;DHT22;11910;52.086;21.066;2022-08-21T02:06:50;19.60;95.70
23475;DHT22;11910;52.086;21.066;2022-08-21T02:09:17;19.50;96.60
23475;DHT22;11910;52.086;21.066;2022-08-21T02:11:43;19.50;96.60
23475;DHT22;11910;52.086;21.066;2022-08-21T02:14:10;19.50;96.40
23475;DHT22;11910;52.086;21.066;2022-08-21T02:16:36;19.50;96.30
23475;DHT22;11910;52.086;21.066;2022-08-21T02:19:03;19.40;96.10
23475;DHT22;11910;52.086;21.066;2022-08-21T02:21:28;19.40;96.40
23475;DHT22;11910;52.086;21.066;2022-08-21T02:23:54;19.40;96.90
23475;DHT22;11910;52.086;21.066;2022-08-21T02:26:20;19.50;96.60
23475;DHT22;11910;52.086;21.066;2022-08-21T02:28:46;19.50;95.90
23475;DHT22;11910;52.086;21.066;2022-08-21T02:31:11;19.50;97.20
23475;DHT22;11910;52.086;21.066;2022-08-21T02:33:37;19.50;96.70
23475;DHT22;11910;52.086;21.066;2022-08-21T02:36:05;19.40;95.90
23475;DHT22;11910;52.086;21.066;2022-08-21T02:38:33;19.40;95.40
23475;DHT22;11910;52.086;21.066;2022-08-21T02:41:00;19.30;95.10
23475;DHT22;11910;52.086;21.066;2022-08-21T02:43:27;19.30;95.50
23475;DHT22;11910;52.086;21.066;2022-08-21T02:45:55;19.20;96.50
23475;DHT22;11910;52.086;21.066;2022-08-21T02:48:24;19.30;96.90
23475;DHT22;11910;52.086;21.066;2022-08-21T02:50:59;19.30;96.90
23475;DHT22;11910;52.086;21.066;2022-08-21T02:53:26;19.30;96.40
23475;DHT22;11910;52.086;21.066;2022-08-21T02:55:53;19.30;96.40
23475;DHT22;11910;52.086;21.066;2022-08-21T02:58:23;19.30;95.90
23475;DHT22;11910;52.086;21.066;2022-08-21T03:00:49;19.30;95.80
23475;DHT22;11910;52.086;21.066;2022-08-21T03:03:15;19.20;96.40
23475;DHT22;11910;52.086;21.066;2022-08-21T03:05:42;19.20;95.20
23475;DHT22;11910;52.086;21.066;2022-08-21T03:08:10;19.20;95.00
23475;DHT22;11910;52.086;21.066;2022-08-21T03:10:37;19.10;95.00
23475;DHT22;11910;52.086;21.066;2022-08-21T03:13:03;19.00;95.20
23475;DHT22;11910;52.086;21.066;2022-08-21T03:15:29;18.90;95.00
23475;DHT22;11910;52.086;21.066;2022-08-21T03:17:55;18.90;95.70
23475;DHT22;11910;52.086;21.066;2022-08-21T03:20:23;19.00;96.90
23475;DHT22;11910;52.086;21.066;2022-08-21T03:22:50;19.20;96.80
23475;DHT22;11910;52.086;21.066;2022-08-21T03:25:16;19.20;96.20
23475;DHT22;11910;52.086;21.066;2022-08-21T03:27:43;19.10;94.90
23475;DHT22;11910;52.086;21.066;2022-08-21T03:30:09;19.00;95.30
23475;DHT22;11910;52.086;21.066;2022-08-21T03:32:35;18.90;95.10
23475;DHT22;11910;52.086;21.066;2022-08-21T03:35:02;18.90;96.00
23475;DHT22;11910;52.086;21.066;2022-08-21T03:37:28;18.90;96.40
23475;DHT22;11910;52.086;21.066;2022-08-21T03:39:54;18.90;96.50
23475;DHT22;11910;52.086;21.066;2022-08-21T03:42:19;18.90;97.20
23475;DHT22;11910;52.086;21.066;2022-08-21T03:44:45;18.90;96.80
23475;DHT22;11910;52.086;21.066;2022-08-21T03:47:11;18.90;97.50
23475;DHT22;11910;52.086;21.066;2022-08-21T03:49:37;19.20;97.80
23475;DHT22;11910;52.086;21.066;2022-08-21T03:52:03;19.30;98.00
23475;DHT22;11910;52.086;21.066;2022-08-21T03:54:29;19.30;98.00
23475;DHT22;11910;52.086;21.066;2022-08-21T03:56:55;19.30;96.60
23475;DHT22;11910;52.086;21.066;2022-08-21T03:59:21;19.20;97.20
23475;DHT22;11910;52.086;21.066;2022-08-21T04:01:57;19.20;97.20
23475;DHT22;11910;52.086;21.066;2022-08-21T04:04:24;19.20;98.00
23475;DHT22;11910;52.086;21.066;2022-08-21T04:06:50;19.20;98.00
23475;DHT22;11910;52.086;21.066;2022-08-21T04:09:16;19.20;98.20
23475;DHT22;11910;52.086;21.066;2022-08-21T04:11:42;19.20;98.40
23475;DHT22;11910;52.086;21.066;2022-08-21T04:14:08;19.30;98.70
23475;DHT22;11910;52.086;21.066;2022-08-21T04:16:34;19.30;99.00
23475;DHT22;11910;52.086;21.066;2022-08-21T04:19:00;19.40;99.40
23475;DHT22;11910;52.086;21.066;2022-08-21T04:21:26;19.50;99.90
23475;DHT22;11910;52.086;21.066;2022-08-21T04:23:54;19.50;99.90
23475;DHT22;11910;52.086;21.066;2022-08-21T04:26:21;19.50;99.90
23475;DHT22;11910;52.086;21.066;2022-08-21T04:28:47;19.60;99.90
23475;DHT22;11910;52.086;21.066;2022-08-21T04:31:12;19.70;99.90
23475;DHT22;11910;52.086;21.066;2022-08-21T04:33:38;19.80;99.90
23475;DHT22;11910;52.086;21.066;2022-08-21T04:36:04;19.80;99.90
23475;DHT22;11910;52.086;21.066;2022-08-21T04:38:30;19.90;99.90
23475;DHT22;11910;52.086;21.066;2022-08-21T04:40:57;20.00;99.90
23475;DHT22;11910;52.086;21.066;2022-08-21T04:43:22;20.00;99.90
23475;DHT22;11910;52.086;21.066;2022-08-21T04:45:49;20.10;99.90
23475;DHT22;11910;52.086;21.066;2022-08-21T04:48:18;20.20;99.90
23475;DHT22;11910;52.086;21.066;2022-08-21T04:56:00;20.40;99.90
23475;DHT22;11910;52.086;21.066;2022-08-21T04:58:27;20.50;99.90
23475;DHT22;11910;52.086;21.066;2022-08-21T05:00:54;20.50;99.90
23475;DHT22;11910;52.086;21.066;2022-08-21T05:03:21;20.60;99.90
23475;DHT22;11910;52.086;21.066;2022-08-21T05:05:47;20.70;99.90
23475;DHT22;11910;52.086;21.066;2022-08-21T05:08:17;20.80;99.90
23475;DHT22;11910;52.086;21.066;2022-08-21T05:10:44;20.80;99.90
23475;DHT22;11910;52.086;21.066;2022-08-21T05:13:11;20.90;99.90
23475;DHT22;11910;52.086;21.066;2022-08-21T05:15:39;20.90;99.90
23475;DHT22;11910;52.086;21.066;2022-08-21T05:18:05;21.00;99.50
23475;DHT22;11910;52.086;21.066;2022-08-21T05:20:32;21.10;99.70
23475;DHT22;11910;52.086;21.066;2022-08-21T05:23:00;21.10;99.30
23475;DHT22;11910;52.086;21.066;2022-08-21T05:25:26;21.20;99.10
23475;DHT22;11910;52.086;21.066;2022-08-21T05:27:52;21.10;99.00
23475;DHT22;11910;52.086;21.066;2022-08-21T05:30:19;21.20;98.90
23475;DHT22;11910;52.086;21.066;2022-08-21T05:32:45;21.30;99.20
23475;DHT22;11910;52.086;21.066;2022-08-21T05:35:11;21.40;98.40
23475;DHT22;11910;52.086;21.066;2022-08-21T05:37:37;21.40;98.70
23475;DHT22;11910;52.086;21.066;2022-08-21T05:40:03;21.40;98.30
23475;DHT22;11910;52.086;21.066;2022-08-21T05:42:29;21.40;98.40
23475;DHT22;11910;52.086;21.066;2022-08-21T05:44:55;21.40;98.30
23475;DHT22;11910;52.086;21.066;2022-08-21T05:47:21;21.50;98.40
23475;DHT22;11910;52.086;21.066;2022-08-21T05:49:47;21.60;98.50
23475;DHT22;11910;52.086;21.066;2022-08-21T05:52:19;21.60;98.50
23475;DHT22;11910;52.086;21.066;2022-08-21T05:54:45;21.60;97.80
23475;DHT22;11910;52.086;21.066;2022-08-21T05:57:10;21.70;98.00
23475;DHT22;11910;52.086;21.066;2022-08-21T05:59:36;21.70;97.90
23475;DHT22;11910;52.086;21.066;2022-08-21T06:02:03;21.70;98.50
23475;DHT22;11910;52.086;21.066;2022-08-21T06:04:29;21.80;97.90
23475;DHT22;11910;52.086;21.066;2022-08-21T06:06:54;21.90;97.80
23475;DHT22;11910;52.086;21.066;2022-08-21T06:09:20;22.00;97.60
23475;DHT22;11910;52.086;21.066;2022-08-21T06:11:46;22.10;97.80
23475;DHT22;11910;52.086;21.066;2022-08-21T06:14:14;22.20;96.90
23475;DHT22;11910;52.086;21.066;2022-08-21T06:16:40;22.30;97.30
23475;DHT22;11910;52.086;21.066;2022-08-21T06:19:05;22.40;97.40
23475;DHT22;11910;52.086;21.066;2022-08-21T06:21:31;22.50;97.20
23475;DHT22;11910;52.086;21.066;2022-08-21T06:23:57;22.60;96.70
23475;DHT22;11910;52.086;21.066;2022-08-21T06:26:23;22.70;96.30
23475;DHT22;11910;52.086;21.066;2022-08-21T06:28:49;22.70;95.80
23475;DHT22;11910;52.086;21.066;2022-08-21T06:31:18;22.90;96.20
23475;DHT22;11910;52.086;21.066;2022-08-21T06:33:44;22.90;95.80
23475;DHT22;11910;52.086;21.066;2022-08-21T06:36:10;23.00;96.20
23475;DHT22;11910;52.086;21.066;2022-08-21T06:38:36;23.00;95.60
23475;DHT22;11910;52.086;21.066;2022-08-21T06:41:02;22.90;95.90
23475;DHT22;11910;52.086;21.066;2022-08-21T06:43:28;22.90;96.00
23475;DHT22;11910;52.086;21.066;2022-08-21T06:45:54;22.90;96.20
23475;DHT22;11910;52.086;21.066;2022-08-21T06:48:20;23.00;96.30
23475;DHT22;11910;52.086;21.066;2022-08-21T06:50:47;23.10;96.20
23475;DHT22;11910;52.086;21.066;2022-08-21T06:53:14;23.10;95.90
23475;DHT22;11910;52.086;21.066;2022-08-21T06:55:41;23.10;96.00
23475;DHT22;11910;52.086;21.066;2022-08-21T06:58:07;23.20;96.20
23475;DHT22;11910;52.086;21.066;2022-08-21T07:00:33;23.20;96.20
23475;DHT22;11910;52.086;21.066;2022-08-21T07:02:59;23.20;95.80
23475;DHT22;11910;52.086;21.066;2022-08-21T07:05:26;23.20;95.20
23475;DHT22;11910;52.086;21.066;2022-08-21T07:07:52;23.30;95.60
23475;DHT22;11910;52.086;21.066;2022-08-21T07:10:18;23.30;95.70
23475;DHT22;11910;52.086;21.066;2022-08-21T07:12:44;23.40;95.70
23475;DHT22;11910;52.086;21.066;2022-08-21T07:15:10;23.40;94.60
23475;DHT22;11910;52.086;21.066;2022-08-21T07:17:36;23.50;95.10
23475;DHT22;11910;52.086;21.066;2022-08-21T07:20:03;23.60;95.70
23475;DHT22;11910;52.086;21.066;2022-08-21T07:22:29;23.60;94.60
23475;DHT22;11910;52.086;21.066;2022-08-21T07:24:55;23.70;94.90
23475;DHT22;11910;52.086;21.066;2022-08-21T07:27:21;23.80;95.30
23475;DHT22;11910;52.086;21.066;2022-08-21T07:29:47;23.90;95.00
23475;DHT22;11910;52.086;21.066;2022-08-21T07:32:13;23.90;95.20
23475;DHT22;11910;52.086;21.066;2022-08-21T07:34:40;24.10;94.70
23475;DHT22;11910;52.086;21.066;2022-08-21T07:37:06;24.10;94.70
23475;DHT22;11910;52.086;21.066;2022-08-21T07:39:31;24.20;94.10
23475;DHT22;11910;52.086;21.066;2022-08-21T07:41:57;24.20;93.70
23475;DHT22;11910;52.086;21.066;2022-08-21T07:44:22;24.30;93.70
23475;DHT22;11910;52.086;21.066;2022-08-21T07:46:48;24.40;93.40
23475;DHT22;11910;52.086;21.066;2022-08-21T07:49:14;24.50;93.80
23475;DHT22;11910;52.086;21.066;2022-08-21T07:51:39;24.60;93.90
23475;DHT22;11910;52.086;21.066;2022-08-21T07:54:05;24.70;93.40
23475;DHT22;11910;52.086;21.066;2022-08-21T07:56:31;24.80;94.70
23475;DHT22;11910;52.086;21.066;2022-08-21T07:58:57;24.90;93.20
23475;DHT22;11910;52.086;21.066;2022-08-21T08:01:23;25.00;93.80
23475;DHT22;11910;52.086;21.066;2022-08-21T08:03:49;25.00;92.80
23475;DHT22;11910;52.086;21.066;2022-08-21T08:06:15;25.10;92.60
23475;DHT22;11910;52.086;21.066;2022-08-21T08:08:44;25.20;92.00
23475;DHT22;11910;52.086;21.066;2022-08-21T08:11:11;25.20;92.20
23475;DHT22;11910;52.086;21.066;2022-08-21T08:13:41;25.30;93.00
23475;DHT22;11910;52.086;21.066;2022-08-21T08:16:07;25.40;92.80
23475;DHT22;11910;52.086;21.066;2022-08-21T08:18:33;25.40;93.30
23475;DHT22;11910;52.086;21.066;2022-08-21T08:20:59;25.50;92.90
23475;DHT22;11910;52.086;21.066;2022-08-21T08:23:25;25.60;92.50
23475;DHT22;11910;52.086;21.066;2022-08-21T08:25:51;25.70;92.00
23475;DHT22;11910;52.086;21.066;2022-08-21T08:28:17;25.80;92.10
23475;DHT22;11910;52.086;21.066;2022-08-21T08:30:43;25.90;92.20
23475;DHT22;11910;52.086;21.066;2022-08-21T08:33:08;26.00;92.00
23475;DHT22;11910;52.086;21.066;2022-08-21T08:35:35;26.10;92.20
23475;DHT22;11910;52.086;21.066;2022-08-21T08:38:01;26.10;91.40
23475;DHT22;11910;52.086;21.066;2022-08-21T08:40:43;26.20;91.50
23475;DHT22;11910;52.086;21.066;2022-08-21T08:43:12;26.30;91.50
23475;DHT22;11910;52.086;21.066;2022-08-21T08:45:40;26.40;91.10
23475;DHT22;11910;52.086;21.066;2022-08-21T08:48:10;26.40;91.00
23475;DHT22;11910;52.086;21.066;2022-08-21T08:50:45;26.50;90.40
23475;DHT22;11910;52.086;21.066;2022-08-21T08:53:19;26.60;89.90
23475;DHT22;11910;52.086;21.066;2022-08-21T08:55:48;26.60;90.30
23475;DHT22;11910;52.086;21.066;2022-08-21T08:58:40;26.70;90.10
23475;DHT22;11910;52.086;21.066;2022-08-21T09:01:13;26.70;89.00
23475;DHT22;11910;52.086;21.066;2022-08-21T09:03:41;26.80;87.10
23475;DHT22;11910;52.086;21.066;2022-08-21T09:06:31;26.90;90.10
23475;DHT22;11910;52.086;21.066;2022-08-21T09:09:25;27.00;88.50
23475;DHT22;11910;52.086;21.066;2022-08-21T09:12:04;27.10;86.90
23475;DHT22;11910;52.086;21.066;2022-08-21T09:14:54;27.20;86.20
23475;DHT22;11910;52.086;21.066;2022-08-21T09:23:30;28.00;82.50
23475;DHT22;11910;52.086;21.066;2022-08-21T09:26:07;28.10;83.30
23475;DHT22;11910;52.086;21.066;2022-08-21T09:28:36;28.40;81.80
23475;DHT22;11910;52.086;21.066;2022-08-21T09:31:07;29.70;81.50
23475;DHT22;11910;52.086;21.066;2022-08-21T09:33:33;29.60;76.70
23475;DHT22;11910;52.086;21.066;2022-08-21T09:35:58;29.70;75.60
23475;DHT22;11910;52.086;21.066;2022-08-21T09:38:36;28.90;78.30
23475;DHT22;11910;52.086;21.066;2022-08-21T09:41:04;28.50;80.30
23475;DHT22;11910;52.086;21.066;2022-08-21T09:43:30;28.10;81.60
23475;DHT22;11910;52.086;21.066;2022-08-21T09:46:09;27.80;81.30
23475;DHT22;11910;52.086;21.066;2022-08-21T09:48:46;27.60;82.40
23475;DHT22;11910;52.086;21.066;2022-08-21T09:51:21;28.50;80.00
23475;DHT22;11910;52.086;21.066;2022-08-21T09:54:15;28.30;80.50
23475;DHT22;11910;52.086;21.066;2022-08-21T10:02:44;27.40;82.30
23475;DHT22;11910;52.086;21.066;2022-08-21T10:05:20;27.60;80.80
23475;DHT22;11910;52.086;21.066;2022-08-21T10:07:48;27.40;81.40
23475;DHT22;11910;52.086;21.066;2022-08-21T10:10:19;27.50;81.80
23475;DHT22;11910;52.086;21.066;2022-08-21T10:12:49;27.80;80.00
23475;DHT22;11910;52.086;21.066;2022-08-21T10:18:30;28.40;78.80
23475;DHT22;11910;52.086;21.066;2022-08-21T10:26:34;29.20;74.90
23475;DHT22;11910;52.086;21.066;2022-08-21T10:34:45;29.80;74.80
23475;DHT22;11910;52.086;21.066;2022-08-21T10:37:18;29.70;74.90
23475;DHT22;11910;52.086;21.066;2022-08-21T10:45:49;29.20;76.80
23475;DHT22;11910;52.086;21.066;2022-08-21T10:53:45;28.70;78.70
23475;DHT22;11910;52.086;21.066;2022-08-21T10:58:46;28.40;80.90
23475;DHT22;11910;52.086;21.066;2022-08-21T11:01:41;28.30;80.80
23475;DHT22;11910;52.086;21.066;2022-08-21T11:04:16;28.10;80.00
23475;DHT22;11910;52.086;21.066;2022-08-21T11:06:47;27.90;79.20
23475;DHT22;11910;52.086;21.066;2022-08-21T11:09:17;27.70;78.30
23475;DHT22;11910;52.086;21.066;2022-08-21T11:11:48;27.50;81.20
23475;DHT22;11910;52.086;21.066;2022-08-21T11:14:29;27.30;80.50
23475;DHT22;11910;52.086;21.066;2022-08-21T11:17:09;27.20;85.60
23475;DHT22;11910;52.086;21.066;2022-08-21T11:19:42;27.10;82.80
23475;DHT22;11910;52.086;21.066;2022-08-21T11:22:33;27.10;83.40
23475;DHT22;11910;52.086;21.066;2022-08-21T11:25:27;27.10;81.30
23475;DHT22;11910;52.086;21.066;2022-08-21T11:28:13;27.10;82.20
23475;DHT22;11910;52.086;21.066;2022-08-21T11:41:46;27.30;79.20
23475;DHT22;11910;52.086;21.066;2022-08-21T11:47:33;27.60;78.50
23475;DHT22;11910;52.086;21.066;2022-08-21T11:50:19;27.80;78.60
23475;DHT22;11910;52.086;21.066;2022-08-21T11:52:54;28.00;78.00
23475;DHT22;11910;52.086;21.066;2022-08-21T11:55:48;28.20;77.60
23475;DHT22;11910;52.086;21.066;2022-08-21T11:58:31;28.30;75.80
23475;DHT22;11910;52.086;21.066;2022-08-21T12:01:04;28.40;77.40
23475;DHT22;11910;52.086;21.066;2022-08-21T12:03:36;28.60;77.90
23475;DHT22;11910;52.086;21.066;2022-08-21T12:06:09;28.80;78.30
23475;DHT22;11910;52.086;21.066;2022-08-21T12:08:40;28.80;78.80
23475;DHT22;11910;52.086;21.066;2022-08-21T12:11:10;28.80;77.50
23475;DHT22;11910;52.086;21.066;2022-08-21T12:13:52;28.80;77.30
23475;DHT22;11910;52.086;21.066;2022-08-21T12:19:10;28.80;78.50
23475;DHT22;11910;52.086;21.066;2022-08-21T12:24:37;29.10;76.20
23475;DHT22;11910;52.086;21.066;2022-08-21T12:29:54;29.00;76.10
23475;DHT22;11910;52.086;21.066;2022-08-21T12:32:30;29.00;77.40
23475;DHT22;11910;52.086;21.066;2022-08-21T12:35:10;28.90;81.30
23475;DHT22;11910;52.086;21.066;2022-08-21T12:37:46;28.90;80.40
23475;DHT22;11910;52.086;21.066;2022-08-21T12:40:26;28.80;78.90
23475;DHT22;11910;52.086;21.066;2022-08-21T12:42:55;28.80;78.00
23475;DHT22;11910;52.086;21.066;2022-08-21T12:45:37;28.70;76.70
23475;DHT22;11910;52.086;21.066;2022-08-21T12:48:44;28.60;75.60
23475;DHT22;11910;52.086;21.066;2022-08-21T12:51:32;28.70;73.60
23475;DHT22;11910;52.086;21.066;2022-08-21T12:54:00;28.80;73.80
23475;DHT22;11910;52.086;21.066;2022-08-21T12:56:30;28.90;74.60
23475;DHT22;11910;52.086;21.066;2022-08-21T12:59:01;29.00;78.70
23475;DHT22;11910;52.086;21.066;2022-08-21T13:01:34;29.00;73.60
23475;DHT22;11910;52.086;21.066;2022-08-21T13:04:07;29.10;73.40
23475;DHT22;11910;52.086;21.066;2022-08-21T13:06:39;29.20;73.40
23475;DHT22;11910;52.086;21.066;2022-08-21T13:09:09;29.20;72.80
23475;DHT22;11910;52.086;21.066;2022-08-21T13:11:40;29.40;74.40
23475;DHT22;11910;52.086;21.066;2022-08-21T13:14:14;29.40;71.30
23475;DHT22;11910;52.086;21.066;2022-08-21T13:16:42;29.30;71.00
23475;DHT22;11910;52.086;21.066;2022-08-21T13:19:11;29.30;74.40
23475;DHT22;11910;52.086;21.066;2022-08-21T13:21:43;29.30;73.50
23475;DHT22;11910;52.086;21.066;2022-08-21T13:26:53;29.20;72.40
23475;DHT22;11910;52.086;21.066;2022-08-21T13:29:22;29.10;74.90
23475;DHT22;11910;52.086;21.066;2022-08-21T13:31:53;29.00;75.90
23475;DHT22;11910;52.086;21.066;2022-08-21T13:34:20;28.80;75.50
23475;DHT22;11910;52.086;21.066;2022-08-21T13:36:47;28.50;75.40
23475;DHT22;11910;52.086;21.066;2022-08-21T13:39:18;28.40;77.70
23475;DHT22;11910;52.086;21.066;2022-08-21T13:41:46;28.30;77.50
23475;DHT22;11910;52.086;21.066;2022-08-21T13:44:20;28.20;77.90
23475;DHT22;11910;52.086;21.066;2022-08-21T13:46:48;28.00;76.70
23475;DHT22;11910;52.086;21.066;2022-08-21T13:49:19;27.90;75.80
23475;DHT22;11910;52.086;21.066;2022-08-21T13:51:46;27.90;76.90
23475;DHT22;11910;52.086;21.066;2022-08-21T13:54:23;28.00;77.60
23475;DHT22;11910;52.086;21.066;2022-08-21T13:56:51;28.10;75.80
23475;DHT22;11910;52.086;21.066;2022-08-21T13:59:32;28.20;76.10
23475;DHT22;11910;52.086;21.066;2022-08-21T14:02:22;28.30;75.80
23475;DHT22;11910;52.086;21.066;2022-08-21T14:04:58;28.30;75.30
23475;DHT22;11910;52.086;21.066;2022-08-21T14:07:36;28.30;77.70
23475;DHT22;11910;52.086;21.066;2022-08-21T14:10:21;28.40;77.20
23475;DHT22;11910;52.086;21.066;2022-08-21T14:12:54;28.40;74.70
23475;DHT22;11910;52.086;21.066;2022-08-21T14:15:24;28.50;75.30
23475;DHT22;11910;52.086;21.066;2022-08-21T14:17:51;28.40;75.40
23475;DHT22;11910;52.086;21.066;2022-08-21T14:20:33;28.40;76.10
23475;DHT22;11910;52.086;21.066;2022-08-21T14:22:59;28.40;75.90
23475;DHT22;11910;52.086;21.066;2022-08-21T14:32:47;28.20;76.80
23475;DHT22;11910;52.086;21.066;2022-08-21T14:35:14;28.10;75.60
23475;DHT22;11910;52.086;21.066;2022-08-21T14:37:43;28.10;77.00
23475;DHT22;11910;52.086;21.066;2022-08-21T14:40:10;28.00;77.50
23475;DHT22;11910;52.086;21.066;2022-08-21T14:42:36;27.90;77.70
23475;DHT22;11910;52.086;21.066;2022-08-21T14:45:19;27.80;77.10
23475;DHT22;11910;52.086;21.066;2022-08-21T14:47:47;27.70;76.10
23475;DHT22;11910;52.086;21.066;2022-08-21T14:50:13;27.70;77.10
23475;DHT22;11910;52.086;21.066;2022-08-21T14:52:39;27.60;76.90
23475;DHT22;11910;52.086;21.066;2022-08-21T14:55:07;27.60;76.40
23475;DHT22;11910;52.086;21.066;2022-08-21T14:57:36;27.50;78.30
23475;DHT22;11910;52.086;21.066;2022-08-21T15:00:04;27.40;76.60
23475;DHT22;11910;52.086;21.066;2022-08-21T15:02:30;27.30;76.50
23475;DHT22;11910;52.086;21.066;2022-08-21T15:04:55;27.30;78.10
23475;DHT22;11910;52.086;21.066;2022-08-21T15:07:21;27.30;80.90
23475;DHT22;11910;52.086;21.066;2022-08-21T15:09:47;27.20;77.80
23475;DHT22;11910;52.086;21.066;2022-08-21T15:12:13;27.20;78.80
23475;DHT22;11910;52.086;21.066;2022-08-21T15:14:40;27.20;79.50
23475;DHT22;11910;52.086;21.066;2022-08-21T15:17:08;27.20;80.80
23475;DHT22;11910;52.086;21.066;2022-08-21T15:19:34;27.10;78.20
23475;DHT22;11910;52.086;21.066;2022-08-21T15:22:00;27.00;78.30
23475;DHT22;11910;52.086;21.066;2022-08-21T15:24:26;27.00;78.40
23475;DHT22;11910;52.086;21.066;2022-08-21T15:26:53;26.90;78.40
23475;DHT22;11910;52.086;21.066;2022-08-21T15:29:20;26.90;79.40
23475;DHT22;11910;52.086;21.066;2022-08-21T15:31:55;26.80;80.30
23475;DHT22;11910;52.086;21.066;2022-08-21T15:34:22;26.70;79.30
23475;DHT22;11910;52.086;21.066;2022-08-21T15:36:48;26.70;79.70
23475;DHT22;11910;52.086;21.066;2022-08-21T15:39:14;26.70;80.00
23475;DHT22;11910;52.086;21.066;2022-08-21T15:41:40;26.70;79.50
23475;DHT22;11910;52.086;21.066;2022-08-21T15:44:09;26.60;79.80
23475;DHT22;11910;52.086;21.066;2022-08-21T15:46:36;26.60;80.10
23475;DHT22;11910;52.086;21.066;2022-08-21T15:49:02;26.50;80.00
23475;DHT22;11910;52.086;21.066;2022-08-21T15:51:28;26.50;81.00
23475;DHT22;11910;52.086;21.066;2022-08-21T15:53:53;26.40;80.70
23475;DHT22;11910;52.086;21.066;2022-08-21T15:56:25;26.40;81.30
23475;DHT22;11910;52.086;21.066;2022-08-21T15:58:53;26.20;80.60
23475;DHT22;11910;52.086;21.066;2022-08-21T16:01:23;26.10;82.00
23475;DHT22;11910;52.086;21.066;2022-08-21T16:03:50;26.10;83.50
23475;DHT22;11910;52.086;21.066;2022-08-21T16:06:17;26.00;82.80
23475;DHT22;11910;52.086;21.066;2022-08-21T16:08:42;25.90;82.10
23475;DHT22;11910;52.086;21.066;2022-08-21T16:11:08;25.80;82.60
23475;DHT22;11910;52.086;21.066;2022-08-21T16:13:39;25.70;83.00
23475;DHT22;11910;52.086;21.066;2022-08-21T16:16:11;25.70;83.20
23475;DHT22;11910;52.086;21.066;2022-08-21T16:18:38;25.60;84.00
23475;DHT22;11910;52.086;21.066;2022-08-21T16:21:04;25.50;84.10
23475;DHT22;11910;52.086;21.066;2022-08-21T16:23:30;25.40;84.60
23475;DHT22;11910;52.086;21.066;2022-08-21T16:25:58;25.40;84.60
23475;DHT22;11910;52.086;21.066;2022-08-21T16:28:24;25.30;85.10
23475;DHT22;11910;52.086;21.066;2022-08-21T16:30:51;25.30;85.20
23475;DHT22;11910;52.086;21.066;2022-08-21T16:33:41;25.20;85.80
23475;DHT22;11910;52.086;21.066;2022-08-21T16:36:08;25.10;85.60
23475;DHT22;11910;52.086;21.066;2022-08-21T16:38:35;25.10;86.20
23475;DHT22;11910;52.086;21.066;2022-08-21T16:41:03;25.00;86.10
23475;DHT22;11910;52.086;21.066;2022-08-21T16:43:29;25.00;86.60
23475;DHT22;11910;52.086;21.066;2022-08-21T16:45:57;25.00;87.00